sensor_id;sensor_type;location;lat;lon;timestamp;P1;durP1;ratioP1;P2;durP2;ratioP2
11893;SDS011;6006;49.696;8.662;2023-03-05T00:01:37;17.40;;;10.07;;
11893;SDS011;6006;49.696;8.662;2023-03-05T00:04:04;18.20;;;10.57;;
11893;SDS011;6006;49.696;8.662;2023-03-05T00:06:35;18.00;;;9.90;;
11893;SDS011;6006;49.696;8.662;2023-03-05T00:09:02;18.57;;;9.57;;
11893;SDS011;6006;49.696;8.662;2023-03-05T00:11:30;18.50;;;9.50;;
11893;SDS011;6006;49.696;8.662;2023-03-05T00:13:58;17.50;;;9.80;;
11893;SDS011;6006;49.696;8.662;2023-03-05T00:16:27;16.83;;;10.13;;
11893;SDS011;6006;49.696;8.662;2023-03-05T00:18:57;15.33;;;8.93;;
11893;SDS011;6006;49.696;8.662;2023-03-05T00:21:25;15.87;;;9.07;;
11893;SDS011;6006;49.696;8.662;2023-03-05T00:23:54;18.20;;;9.13;;
11893;SDS011;6006;49.696;8.662;2023-03-05T00:26:22;20.97;;;10.50;;
11893;SDS011;6006;49.696;8.662;2023-03-05T00:28:51;17.40;;;8.67;;
11893;SDS011;6006;49.696;8.662;2023-03-05T00:31:19;17.50;;;10.00;;
11893;SDS011;6006;49.696;8.662;2023-03-05T00:33:50;17.63;;;9.17;;
11893;SDS011;6006;49.696;8.662;2023-03-05T00:36:18;15.60;;;9.37;;
11893;SDS011;6006;49.696;8.662;2023-03-05T00:38:45;18.57;;;9.90;;
11893;SDS011;6006;49.696;8.662;2023-03-05T00:41:12;18.60;;;10.00;;
11893;SDS011;6006;49.696;8.662;2023-03-05T00:43:39;16.87;;;9.10;;
11893;SDS011;6006;49.696;8.662;2023-03-05T00:46:06;18.90;;;9.73;;
11893;SDS011;6006;49.696;8.662;2023-03-05T00:48:33;14.80;;;8.63;;
11893;SDS011;6006;49.696;8.662;2023-03-05T00:51:00;17.30;;;9.27;;
11893;SDS011;6006;49.696;8.662;2023-03-05T00:53:28;15.93;;;8.93;;
11893;SDS011;6006;49.696;8.662;2023-03-05T00:55:55;17.00;;;8.83;;
11893;SDS011;6006;49.696;8.662;2023-03-05T00:58:23;15.90;;;8.80;;
11893;SDS011;6006;49.696;8.662;2023-03-05T01:00:50;14.97;;;8.13;;
11893;SDS011;6006;49.696;8.662;2023-03-05T01:03:16;15.43;;;8.87;;
11893;SDS011;6006;49.696;8.662;2023-03-05T01:05:43;14.87;;;8.80;;
11893;SDS011;6006;49.696;8.662;2023-03-05T01:08:10;15.43;;;8.60;;
11893;SDS011;6006;49.696;8.662;2023-03-05T01:10:39;16.10;;;8.73;;
11893;SDS011;6006;49.696;8.662;2023-03-05T01:13:05;15.97;;;9.77;;
11893;SDS011;6006;49.696;8.662;2023-03-05T01:15:32;17.20;;;8.93;;
11893;SDS011;6006;49.696;8.662;2023-03-05T01:17:59;16.63;;;9.43;;
11893;SDS011;6006;49.696;8.662;2023-03-05T01:20:26;21.43;;;10.07;;
11893;SDS011;6006;49.696;8.662;2023-03-05T01:22:53;19.57;;;10.20;;
11893;SDS011;6006;49.696;8.662;2023-03-05T01:25:22;16.97;;;8.67;;
11893;SDS011;6006;49.696;8.662;2023-03-05T01:27:51;13.80;;;8.80;;
11893;SDS011;6006;49.696;8.662;2023-03-05T01:30:18;16.73;;;8.93;;
11893;SDS011;6006;49.696;8.662;2023-03-05T01:32:45;17.87;;;9.63;;
11893;SDS011;6006;49.696;8.662;2023-03-05T01:35:15;19.63;;;9.53;;
11893;SDS011;6006;49.696;8.662;2023-03-05T01:37:43;16.17;;;8.93;;
11893;SDS011;6006;49.696;8.662;2023-03-05T01:40:12;18.97;;;9.03;;
11893;SDS011;6006;49.696;8.662;2023-03-05T01:42:43;21.53;;;9.93;;
11893;SDS011;6006;49.696;8.662;2023-03-05T01:45:13;21.43;;;9.67;;
11893;SDS011;6006;49.696;8.662;2023-03-05T01:47:42;17.87;;;9.27;;
11893;SDS011;6006;49.696;8.662;2023-03-05T01:50:10;21.10;;;10.00;;
11893;SDS011;6006;49.696;8.662;2023-03-05T01:52:39;14.47;;;8.50;;
11893;SDS011;6006;49.696;8.662;2023-03-05T01:55:10;17.87;;;10.17;;
11893;SDS011;6006;49.696;8.662;2023-03-05T01:57:41;16.90;;;9.17;;
11893;SDS011;6006;49.696;8.662;2023-03-05T02:00:13;18.07;;;9.70;;
11893;SDS011;6006;49.696;8.662;2023-03-05T02:02:44;21.87;;;9.73;;
11893;SDS011;6006;49.696;8.662;2023-03-05T02:05:15;17.47;;;8.60;;
11893;SDS011;6006;49.696;8.662;2023-03-05T02:07:44;17.30;;;9.53;;
11893;SDS011;6006;49.696;8.662;2023-03-05T02:10:15;18.67;;;9.17;;
11893;SDS011;6006;49.696;8.662;2023-03-05T02:12:44;15.80;;;8.33;;
11893;SDS011;6006;49.696;8.662;2023-03-05T02:15:13;14.07;;;8.43;;
11893;SDS011;6006;49.696;8.662;2023-03-05T02:17:41;15.00;;;8.53;;
11893;SDS011;6006;49.696;8.662;2023-03-05T02:20:08;19.90;;;9.50;;
11893;SDS011;6006;49.696;8.662;2023-03-05T02:22:38;19.73;;;9.50;;
11893;SDS011;6006;49.696;8.662;2023-03-05T02:25:16;17.33;;;8.80;;
11893;SDS011;6006;49.696;8.662;2023-03-05T02:27:48;15.57;;;8.53;;
11893;SDS011;6006;49.696;8.662;2023-03-05T02:30:20;18.30;;;9.57;;
11893;SDS011;6006;49.696;8.662;2023-03-05T02:32:47;17.67;;;9.50;;
11893;SDS011;6006;49.696;8.662;2023-03-05T02:35:14;19.73;;;9.03;;
11893;SDS011;6006;49.696;8.662;2023-03-05T02:37:42;15.37;;;8.87;;
11893;SDS011;6006;49.696;8.662;2023-03-05T02:40:09;16.37;;;9.47;;
11893;SDS011;6006;49.696;8.662;2023-03-05T02:42:37;17.30;;;8.93;;
11893;SDS011;6006;49.696;8.662;2023-03-05T02:45:04;15.30;;;8.77;;
11893;SDS011;6006;49.696;8.662;2023-03-05T02:47:32;16.27;;;8.77;;
11893;SDS011;6006;49.696;8.662;2023-03-05T02:49:59;17.43;;;8.90;;
11893;SDS011;6006;49.696;8.662;2023-03-05T02:52:26;16.93;;;8.50;;
11893;SDS011;6006;49.696;8.662;2023-03-05T02:54:56;18.33;;;8.97;;
11893;SDS011;6006;49.696;8.662;2023-03-05T02:57:23;17.00;;;8.80;;
11893;SDS011;6006;49.696;8.662;2023-03-05T02:59:50;18.33;;;9.53;;
11893;SDS011;6006;49.696;8.662;2023-03-05T03:02:17;14.93;;;8.87;;
11893;SDS011;6006;49.696;8.662;2023-03-05T03:04:44;15.97;;;9.27;;
11893;SDS011;6006;49.696;8.662;2023-03-05T03:07:11;20.00;;;9.20;;
11893;SDS011;6006;49.696;8.662;2023-03-05T03:09:38;17.97;;;9.10;;
11893;SDS011;6006;49.696;8.662;2023-03-05T03:12:08;17.27;;;9.27;;
11893;SDS011;6006;49.696;8.662;2023-03-05T03:14:37;13.37;;;7.80;;
11893;SDS011;6006;49.696;8.662;2023-03-05T03:17:05;17.87;;;9.20;;
11893;SDS011;6006;49.696;8.662;2023-03-05T03:19:32;16.03;;;8.87;;
11893;SDS011;6006;49.696;8.662;2023-03-05T03:21:59;18.27;;;9.10;;
11893;SDS011;6006;49.696;8.662;2023-03-05T03:24:26;15.70;;;8.83;;
11893;SDS011;6006;49.696;8.662;2023-03-05T03:26:54;15.93;;;9.40;;
11893;SDS011;6006;49.696;8.662;2023-03-05T03:29:22;13.87;;;8.27;;
11893;SDS011;6006;49.696;8.662;2023-03-05T03:31:49;17.63;;;9.10;;
11893;SDS011;6006;49.696;8.662;2023-03-05T03:34:17;15.33;;;8.03;;
11893;SDS011;6006;49.696;8.662;2023-03-05T03:36:44;19.37;;;8.40;;
11893;SDS011;6006;49.696;8.662;2023-03-05T03:39:12;17.03;;;8.80;;
11893;SDS011;6006;49.696;8.662;2023-03-05T03:41:39;17.67;;;9.20;;
11893;SDS011;6006;49.696;8.662;2023-03-05T03:44:07;16.73;;;8.93;;
11893;SDS011;6006;49.696;8.662;2023-03-05T03:46:36;13.57;;;7.90;;
11893;SDS011;6006;49.696;8.662;2023-03-05T03:49:03;17.03;;;9.53;;
11893;SDS011;6006;49.696;8.662;2023-03-05T03:51:32;18.43;;;8.93;;
11893;SDS011;6006;49.696;8.662;2023-03-05T03:53:59;20.07;;;9.60;;
11893;SDS011;6006;49.696;8.662;2023-03-05T03:56:26;18.33;;;9.13;;
11893;SDS011;6006;49.696;8.662;2023-03-05T03:58:53;19.90;;;9.60;;
11893;SDS011;6006;49.696;8.662;2023-03-05T04:01:20;16.47;;;9.47;;
11893;SDS011;6006;49.696;8.662;2023-03-05T04:03:48;18.77;;;9.37;;
11893;SDS011;6006;49.696;8.662;2023-03-05T04:06:15;15.63;;;8.97;;
11893;SDS011;6006;49.696;8.662;2023-03-05T04:08:43;16.60;;;8.53;;
11893;SDS011;6006;49.696;8.662;2023-03-05T04:11:10;16.90;;;9.43;;
11893;SDS011;6006;49.696;8.662;2023-03-05T04:13:37;16.60;;;9.13;;
11893;SDS011;6006;49.696;8.662;2023-03-05T04:16:04;14.47;;;8.70;;
11893;SDS011;6006;49.696;8.662;2023-03-05T04:18:31;16.57;;;9.33;;
11893;SDS011;6006;49.696;8.662;2023-03-05T04:21:00;16.73;;;8.87;;
11893;SDS011;6006;49.696;8.662;2023-03-05T04:23:27;16.97;;;8.97;;
11893;SDS011;6006;49.696;8.662;2023-03-05T04:25:54;19.37;;;9.67;;
11893;SDS011;6006;49.696;8.662;2023-03-05T04:28:20;18.60;;;9.43;;
11893;SDS011;6006;49.696;8.662;2023-03-05T04:30:47;18.07;;;9.63;;
11893;SDS011;6006;49.696;8.662;2023-03-05T04:33:14;16.93;;;8.90;;
11893;SDS011;6006;49.696;8.662;2023-03-05T04:35:41;18.10;;;10.00;;
11893;SDS011;6006;49.696;8.662;2023-03-05T04:38:10;20.47;;;10.20;;
11893;SDS011;6006;49.696;8.662;2023-03-05T04:40:37;19.53;;;10.00;;
11893;SDS011;6006;49.696;8.662;2023-03-05T04:43:04;20.97;;;9.80;;
11893;SDS011;6006;49.696;8.662;2023-03-05T04:45:32;21.17;;;10.27;;
11893;SDS011;6006;49.696;8.662;2023-03-05T04:47:59;15.57;;;8.70;;
11893;SDS011;6006;49.696;8.662;2023-03-05T04:50:26;15.13;;;8.90;;
11893;SDS011;6006;49.696;8.662;2023-03-05T04:52:53;21.57;;;9.73;;
11893;SDS011;6006;49.696;8.662;2023-03-05T04:55:21;18.57;;;9.87;;
11893;SDS011;6006;49.696;8.662;2023-03-05T04:57:48;20.10;;;9.80;;
11893;SDS011;6006;49.696;8.662;2023-03-05T05:00:15;22.80;;;10.03;;
11893;SDS011;6006;49.696;8.662;2023-03-05T05:02:43;16.43;;;9.03;;
11893;SDS011;6006;49.696;8.662;2023-03-05T05:05:12;17.53;;;10.10;;
11893;SDS011;6006;49.696;8.662;2023-03-05T05:07:40;21.30;;;10.20;;
11893;SDS011;6006;49.696;8.662;2023-03-05T05:10:08;17.53;;;8.87;;
11893;SDS011;6006;49.696;8.662;2023-03-05T05:12:37;18.17;;;9.40;;
11893;SDS011;6006;49.696;8.662;2023-03-05T05:15:05;15.43;;;8.47;;
11893;SDS011;6006;49.696;8.662;2023-03-05T05:17:33;16.30;;;8.73;;
11893;SDS011;6006;49.696;8.662;2023-03-05T05:20:01;17.50;;;9.60;;
11893;SDS011;6006;49.696;8.662;2023-03-05T05:22:30;17.67;;;9.67;;
11893;SDS011;6006;49.696;8.662;2023-03-05T05:24:58;17.53;;;9.17;;
11893;SDS011;6006;49.696;8.662;2023-03-05T05:27:25;17.57;;;9.77;;
11893;SDS011;6006;49.696;8.662;2023-03-05T05:29:53;14.97;;;8.53;;
11893;SDS011;6006;49.696;8.662;2023-03-05T05:32:20;16.13;;;8.63;;
11893;SDS011;6006;49.696;8.662;2023-03-05T05:34:52;18.63;;;9.20;;
11893;SDS011;6006;49.696;8.662;2023-03-05T05:37:20;16.50;;;9.60;;
11893;SDS011;6006;49.696;8.662;2023-03-05T05:39:47;15.27;;;9.30;;
11893;SDS011;6006;49.696;8.662;2023-03-05T05:42:14;16.33;;;9.17;;
11893;SDS011;6006;49.696;8.662;2023-03-05T05:44:42;17.70;;;10.10;;
11893;SDS011;6006;49.696;8.662;2023-03-05T05:47:10;15.20;;;9.00;;
11893;SDS011;6006;49.696;8.662;2023-03-05T05:49:37;15.63;;;9.33;;
11893;SDS011;6006;49.696;8.662;2023-03-05T05:52:04;17.40;;;10.23;;
11893;SDS011;6006;49.696;8.662;2023-03-05T05:54:31;19.03;;;9.63;;
11893;SDS011;6006;49.696;8.662;2023-03-05T05:56:58;16.43;;;8.93;;
11893;SDS011;6006;49.696;8.662;2023-03-05T05:59:25;18.60;;;9.77;;
11893;SDS011;6006;49.696;8.662;2023-03-05T06:01:52;16.57;;;9.40;;
11893;SDS011;6006;49.696;8.662;2023-03-05T06:04:21;17.93;;;8.70;;
11893;SDS011;6006;49.696;8.662;2023-03-05T06:06:48;17.03;;;8.87;;
11893;SDS011;6006;49.696;8.662;2023-03-05T06:09:14;17.77;;;9.17;;
11893;SDS011;6006;49.696;8.662;2023-03-05T06:11:42;20.40;;;9.50;;
11893;SDS011;6006;49.696;8.662;2023-03-05T06:14:09;20.03;;;10.23;;
11893;SDS011;6006;49.696;8.662;2023-03-05T06:16:37;18.70;;;9.57;;
11893;SDS011;6006;49.696;8.662;2023-03-05T06:19:04;16.67;;;9.57;;
11893;SDS011;6006;49.696;8.662;2023-03-05T06:21:32;17.47;;;9.13;;
11893;SDS011;6006;49.696;8.662;2023-03-05T06:23:59;16.97;;;9.63;;
11893;SDS011;6006;49.696;8.662;2023-03-05T06:26:26;17.13;;;9.43;;
11893;SDS011;6006;49.696;8.662;2023-03-05T06:28:53;17.93;;;9.33;;
11893;SDS011;6006;49.696;8.662;2023-03-05T06:31:20;18.03;;;9.13;;
11893;SDS011;6006;49.696;8.662;2023-03-05T06:33:49;17.93;;;9.63;;
11893;SDS011;6006;49.696;8.662;2023-03-05T06:36:17;19.83;;;10.23;;
11893;SDS011;6006;49.696;8.662;2023-03-05T06:38:47;15.97;;;9.60;;
11893;SDS011;6006;49.696;8.662;2023-03-05T06:41:15;16.27;;;9.57;;
11893;SDS011;6006;49.696;8.662;2023-03-05T06:43:44;15.90;;;10.13;;
11893;SDS011;6006;49.696;8.662;2023-03-05T06:46:13;16.50;;;9.97;;
11893;SDS011;6006;49.696;8.662;2023-03-05T06:48:44;16.23;;;9.40;;
11893;SDS011;6006;49.696;8.662;2023-03-05T06:51:12;18.20;;;9.67;;
11893;SDS011;6006;49.696;8.662;2023-03-05T06:53:39;18.77;;;10.47;;
11893;SDS011;6006;49.696;8.662;2023-03-05T06:56:07;19.53;;;10.33;;
11893;SDS011;6006;49.696;8.662;2023-03-05T06:58:35;17.43;;;10.03;;
11893;SDS011;6006;49.696;8.662;2023-03-05T07:01:03;18.77;;;10.53;;
11893;SDS011;6006;49.696;8.662;2023-03-05T07:03:30;20.27;;;10.50;;
11893;SDS011;6006;49.696;8.662;2023-03-05T07:05:57;16.93;;;9.23;;
11893;SDS011;6006;49.696;8.662;2023-03-05T07:08:24;17.77;;;9.77;;
11893;SDS011;6006;49.696;8.662;2023-03-05T07:10:51;20.90;;;11.40;;
11893;SDS011;6006;49.696;8.662;2023-03-05T07:13:19;18.37;;;10.03;;
11893;SDS011;6006;49.696;8.662;2023-03-05T07:15:46;17.33;;;9.77;;
11893;SDS011;6006;49.696;8.662;2023-03-05T07:18:13;16.07;;;9.83;;
11893;SDS011;6006;49.696;8.662;2023-03-05T07:20:40;17.87;;;11.10;;
11893;SDS011;6006;49.696;8.662;2023-03-05T07:23:06;17.73;;;9.37;;
11893;SDS011;6006;49.696;8.662;2023-03-05T07:25:34;19.67;;;10.87;;
11893;SDS011;6006;49.696;8.662;2023-03-05T07:28:01;18.70;;;10.87;;
11893;SDS011;6006;49.696;8.662;2023-03-05T07:30:30;17.70;;;10.07;;
11893;SDS011;6006;49.696;8.662;2023-03-05T07:32:57;19.27;;;10.73;;
11893;SDS011;6006;49.696;8.662;2023-03-05T07:35:24;25.17;;;11.67;;
11893;SDS011;6006;49.696;8.662;2023-03-05T07:37:51;18.60;;;10.20;;
11893;SDS011;6006;49.696;8.662;2023-03-05T07:40:19;22.07;;;11.93;;
11893;SDS011;6006;49.696;8.662;2023-03-05T07:42:47;23.57;;;11.43;;
11893;SDS011;6006;49.696;8.662;2023-03-05T07:45:15;20.47;;;10.67;;
11893;SDS011;6006;49.696;8.662;2023-03-05T07:47:43;22.43;;;12.13;;
11893;SDS011;6006;49.696;8.662;2023-03-05T07:50:10;29.37;;;18.00;;
11893;SDS011;6006;49.696;8.662;2023-03-05T07:52:37;23.60;;;14.80;;
11893;SDS011;6006;49.696;8.662;2023-03-05T07:55:04;19.07;;;11.73;;
11893;SDS011;6006;49.696;8.662;2023-03-05T07:57:31;18.97;;;11.50;;
11893;SDS011;6006;49.696;8.662;2023-03-05T07:59:59;19.60;;;11.67;;
11893;SDS011;6006;49.696;8.662;2023-03-05T08:02:27;25.73;;;11.97;;
11893;SDS011;6006;49.696;8.662;2023-03-05T08:04:55;18.97;;;10.77;;
11893;SDS011;6006;49.696;8.662;2023-03-05T08:07:22;17.80;;;11.60;;
11893;SDS011;6006;49.696;8.662;2023-03-05T08:09:50;20.17;;;11.40;;
11893;SDS011;6006;49.696;8.662;2023-03-05T08:12:17;16.90;;;11.17;;
11893;SDS011;6006;49.696;8.662;2023-03-05T08:14:44;17.63;;;10.87;;
11893;SDS011;6006;49.696;8.662;2023-03-05T08:17:12;19.47;;;11.07;;
11893;SDS011;6006;49.696;8.662;2023-03-05T08:19:39;17.47;;;11.03;;
11893;SDS011;6006;49.696;8.662;2023-03-05T08:22:08;14.77;;;9.97;;
11893;SDS011;6006;49.696;8.662;2023-03-05T08:24:34;18.53;;;10.63;;
11893;SDS011;6006;49.696;8.662;2023-03-05T08:27:01;16.20;;;9.67;;
11893;SDS011;6006;49.696;8.662;2023-03-05T08:29:31;16.93;;;10.37;;
11893;SDS011;6006;49.696;8.662;2023-03-05T08:31:58;17.87;;;9.20;;
11893;SDS011;6006;49.696;8.662;2023-03-05T08:34:25;16.83;;;9.47;;
11893;SDS011;6006;49.696;8.662;2023-03-05T08:36:52;16.20;;;9.23;;
11893;SDS011;6006;49.696;8.662;2023-03-05T08:39:26;12.87;;;7.97;;
11893;SDS011;6006;49.696;8.662;2023-03-05T08:41:54;10.40;;;7.37;;
11893;SDS011;6006;49.696;8.662;2023-03-05T08:44:21;12.37;;;7.67;;
11893;SDS011;6006;49.696;8.662;2023-03-05T08:46:47;13.67;;;7.23;;
11893;SDS011;6006;49.696;8.662;2023-03-05T08:49:14;13.43;;;7.70;;
11893;SDS011;6006;49.696;8.662;2023-03-05T08:51:41;11.57;;;6.80;;
11893;SDS011;6006;49.696;8.662;2023-03-05T08:54:08;13.17;;;6.80;;
11893;SDS011;6006;49.696;8.662;2023-03-05T08:56:36;10.67;;;6.43;;
11893;SDS011;6006;49.696;8.662;2023-03-05T08:59:04;9.07;;;6.57;;
11893;SDS011;6006;49.696;8.662;2023-03-05T09:01:31;11.10;;;6.50;;
11893;SDS011;6006;49.696;8.662;2023-03-05T09:03:58;11.77;;;6.10;;
11893;SDS011;6006;49.696;8.662;2023-03-05T09:06:26;9.43;;;6.00;;
11893;SDS011;6006;49.696;8.662;2023-03-05T09:08:53;12.60;;;6.00;;
11893;SDS011;6006;49.696;8.662;2023-03-05T09:11:20;9.73;;;5.53;;
11893;SDS011;6006;49.696;8.662;2023-03-05T09:13:48;7.70;;;5.17;;
11893;SDS011;6006;49.696;8.662;2023-03-05T09:16:16;8.77;;;5.67;;
11893;SDS011;6006;49.696;8.662;2023-03-05T09:18:44;8.90;;;5.40;;
11893;SDS011;6006;49.696;8.662;2023-03-05T09:21:12;8.07;;;4.97;;
11893;SDS011;6006;49.696;8.662;2023-03-05T09:23:40;10.80;;;5.63;;
11893;SDS011;6006;49.696;8.662;2023-03-05T09:26:09;10.63;;;5.77;;
11893;SDS011;6006;49.696;8.662;2023-03-05T09:28:37;9.83;;;5.50;;
11893;SDS011;6006;49.696;8.662;2023-03-05T09:31:06;8.13;;;5.63;;
11893;SDS011;6006;49.696;8.662;2023-03-05T09:33:35;9.13;;;5.37;;
11893;SDS011;6006;49.696;8.662;2023-03-05T09:36:03;8.20;;;5.23;;
11893;SDS011;6006;49.696;8.662;2023-03-05T09:38:31;9.03;;;6.17;;
11893;SDS011;6006;49.696;8.662;2023-03-05T09:40:59;10.60;;;5.80;;
11893;SDS011;6006;49.696;8.662;2023-03-05T09:43:33;10.07;;;5.57;;
11893;SDS011;6006;49.696;8.662;2023-03-05T09:46:12;8.10;;;4.57;;
11893;SDS011;6006;49.696;8.662;2023-03-05T09:48:49;9.83;;;5.33;;
11893;SDS011;6006;49.696;8.662;2023-03-05T09:51:20;8.67;;;4.87;;
11893;SDS011;6006;49.696;8.662;2023-03-05T09:53:50;5.63;;;4.03;;
11893;SDS011;6006;49.696;8.662;2023-03-05T09:56:25;10.13;;;5.17;;
11893;SDS011;6006;49.696;8.662;2023-03-05T09:58:57;9.63;;;5.40;;
11893;SDS011;6006;49.696;8.662;2023-03-05T10:01:29;7.37;;;4.83;;
11893;SDS011;6006;49.696;8.662;2023-03-05T10:04:03;8.33;;;4.50;;
11893;SDS011;6006;49.696;8.662;2023-03-05T10:06:38;7.33;;;4.10;;
11893;SDS011;6006;49.696;8.662;2023-03-05T10:09:13;6.67;;;3.97;;
11893;SDS011;6006;49.696;8.662;2023-03-05T10:11:48;5.77;;;3.73;;
11893;SDS011;6006;49.696;8.662;2023-03-05T10:14:22;9.77;;;4.13;;
11893;SDS011;6006;49.696;8.662;2023-03-05T10:16:57;5.70;;;3.50;;
11893;SDS011;6006;49.696;8.662;2023-03-05T10:19:37;6.80;;;4.03;;
11893;SDS011;6006;49.696;8.662;2023-03-05T10:22:13;8.93;;;4.07;;
11893;SDS011;6006;49.696;8.662;2023-03-05T10:24:48;7.17;;;4.37;;
11893;SDS011;6006;49.696;8.662;2023-03-05T10:27:32;4.93;;;3.50;;
11893;SDS011;6006;49.696;8.662;2023-03-05T10:30:15;7.67;;;4.03;;
11893;SDS011;6006;49.696;8.662;2023-03-05T10:33:00;5.20;;;3.33;;
11893;SDS011;6006;49.696;8.662;2023-03-05T10:35:45;6.67;;;3.63;;
11893;SDS011;6006;49.696;8.662;2023-03-05T10:38:34;7.37;;;3.90;;
11893;SDS011;6006;49.696;8.662;2023-03-05T10:41:15;5.17;;;3.47;;
11893;SDS011;6006;49.696;8.662;2023-03-05T10:43:51;4.63;;;3.23;;
11893;SDS011;6006;49.696;8.662;2023-03-05T10:46:28;6.77;;;4.23;;
11893;SDS011;6006;49.696;8.662;2023-03-05T10:49:03;6.67;;;4.13;;
11893;SDS011;6006;49.696;8.662;2023-03-05T10:51:38;5.80;;;3.77;;
11893;SDS011;6006;49.696;8.662;2023-03-05T10:54:14;5.07;;;2.83;;
11893;SDS011;6006;49.696;8.662;2023-03-05T10:56:49;6.67;;;3.33;;
11893;SDS011;6006;49.696;8.662;2023-03-05T10:59:16;6.67;;;4.33;;
11893;SDS011;6006;49.696;8.662;2023-03-05T11:01:43;6.17;;;3.40;;
11893;SDS011;6006;49.696;8.662;2023-03-05T11:04:31;5.70;;;3.30;;
11893;SDS011;6006;49.696;8.662;2023-03-05T11:07:04;5.00;;;3.13;;
11893;SDS011;6006;49.696;8.662;2023-03-05T11:09:33;4.97;;;3.10;;
11893;SDS011;6006;49.696;8.662;2023-03-05T11:12:10;5.30;;;2.80;;
11893;SDS011;6006;49.696;8.662;2023-03-05T11:14:42;4.67;;;3.20;;
11893;SDS011;6006;49.696;8.662;2023-03-05T11:17:23;4.20;;;2.60;;
11893;SDS011;6006;49.696;8.662;2023-03-05T11:19:55;6.03;;;3.20;;
11893;SDS011;6006;49.696;8.662;2023-03-05T11:22:23;7.43;;;3.67;;
11893;SDS011;6006;49.696;8.662;2023-03-05T11:25:04;5.17;;;3.00;;
11893;SDS011;6006;49.696;8.662;2023-03-05T11:27:42;6.00;;;3.00;;
11893;SDS011;6006;49.696;8.662;2023-03-05T11:30:18;5.10;;;3.30;;
11893;SDS011;6006;49.696;8.662;2023-03-05T11:32:49;7.70;;;3.77;;
11893;SDS011;6006;49.696;8.662;2023-03-05T11:35:35;6.13;;;3.60;;
11893;SDS011;6006;49.696;8.662;2023-03-05T11:38:05;5.57;;;3.33;;
11893;SDS011;6006;49.696;8.662;2023-03-05T11:40:44;5.30;;;3.73;;
11893;SDS011;6006;49.696;8.662;2023-03-05T11:43:13;4.57;;;3.03;;
11893;SDS011;6006;49.696;8.662;2023-03-05T11:45:41;4.37;;;3.27;;
11893;SDS011;6006;49.696;8.662;2023-03-05T11:48:11;3.73;;;2.87;;
11893;SDS011;6006;49.696;8.662;2023-03-05T11:50:44;5.83;;;3.10;;
11893;SDS011;6006;49.696;8.662;2023-03-05T11:53:17;5.17;;;2.90;;
11893;SDS011;6006;49.696;8.662;2023-03-05T11:55:48;4.97;;;3.63;;
11893;SDS011;6006;49.696;8.662;2023-03-05T12:01:05;4.77;;;3.10;;
11893;SDS011;6006;49.696;8.662;2023-03-05T12:03:39;4.70;;;2.90;;
11893;SDS011;6006;49.696;8.662;2023-03-05T12:06:12;4.80;;;3.13;;
11893;SDS011;6006;49.696;8.662;2023-03-05T12:08:44;5.87;;;2.63;;
11893;SDS011;6006;49.696;8.662;2023-03-05T12:11:15;5.57;;;2.87;;
11893;SDS011;6006;49.696;8.662;2023-03-05T12:13:49;7.30;;;3.13;;
11893;SDS011;6006;49.696;8.662;2023-03-05T12:16:24;6.03;;;2.63;;
11893;SDS011;6006;49.696;8.662;2023-03-05T12:18:58;4.20;;;2.60;;
11893;SDS011;6006;49.696;8.662;2023-03-05T12:21:37;5.60;;;3.27;;
11893;SDS011;6006;49.696;8.662;2023-03-05T12:27:06;4.10;;;2.80;;
11893;SDS011;6006;49.696;8.662;2023-03-05T12:29:39;4.40;;;3.10;;
11893;SDS011;6006;49.696;8.662;2023-03-05T12:35:31;5.93;;;3.60;;
11893;SDS011;6006;49.696;8.662;2023-03-05T12:49:43;3.90;;;2.50;;
11893;SDS011;6006;49.696;8.662;2023-03-05T12:52:11;6.73;;;2.93;;
11893;SDS011;6006;49.696;8.662;2023-03-05T12:54:54;4.67;;;2.70;;
11893;SDS011;6006;49.696;8.662;2023-03-05T12:57:28;3.87;;;2.37;;
11893;SDS011;6006;49.696;8.662;2023-03-05T12:59:57;3.00;;;2.37;;
11893;SDS011;6006;49.696;8.662;2023-03-05T13:02:31;3.47;;;2.47;;
11893;SDS011;6006;49.696;8.662;2023-03-05T13:05:03;4.70;;;1.93;;
11893;SDS011;6006;49.696;8.662;2023-03-05T13:07:40;3.67;;;2.13;;
11893;SDS011;6006;49.696;8.662;2023-03-05T13:10:20;3.00;;;1.70;;
11893;SDS011;6006;49.696;8.662;2023-03-05T13:12:54;2.10;;;1.50;;
11893;SDS011;6006;49.696;8.662;2023-03-05T13:15:23;1.77;;;1.40;;
11893;SDS011;6006;49.696;8.662;2023-03-05T13:17:53;2.30;;;1.53;;
11893;SDS011;6006;49.696;8.662;2023-03-05T13:20:29;2.97;;;2.00;;
11893;SDS011;6006;49.696;8.662;2023-03-05T13:23:16;2.77;;;2.00;;
11893;SDS011;6006;49.696;8.662;2023-03-05T13:25:56;3.03;;;1.97;;
11893;SDS011;6006;49.696;8.662;2023-03-05T13:28:25;4.10;;;2.70;;
11893;SDS011;6006;49.696;8.662;2023-03-05T13:30:54;3.03;;;1.90;;
11893;SDS011;6006;49.696;8.662;2023-03-05T13:33:24;3.40;;;2.10;;
11893;SDS011;6006;49.696;8.662;2023-03-05T13:35:53;5.37;;;2.50;;
11893;SDS011;6006;49.696;8.662;2023-03-05T13:38:25;3.77;;;2.43;;
11893;SDS011;6006;49.696;8.662;2023-03-05T13:41:02;4.37;;;2.60;;
11893;SDS011;6006;49.696;8.662;2023-03-05T13:43:31;3.70;;;2.33;;
11893;SDS011;6006;49.696;8.662;2023-03-05T13:45:59;4.57;;;2.50;;
11893;SDS011;6006;49.696;8.662;2023-03-05T13:48:28;3.93;;;2.60;;
11893;SDS011;6006;49.696;8.662;2023-03-05T13:50:57;3.87;;;2.50;;
11893;SDS011;6006;49.696;8.662;2023-03-05T13:53:25;7.13;;;2.50;;
11893;SDS011;6006;49.696;8.662;2023-03-05T13:55:56;5.30;;;2.93;;
11893;SDS011;6006;49.696;8.662;2023-03-05T13:58:40;5.77;;;2.83;;
11893;SDS011;6006;49.696;8.662;2023-03-05T14:01:12;4.60;;;2.63;;
11893;SDS011;6006;49.696;8.662;2023-03-05T14:03:41;3.97;;;2.30;;
11893;SDS011;6006;49.696;8.662;2023-03-05T14:06:08;4.73;;;2.77;;
11893;SDS011;6006;49.696;8.662;2023-03-05T14:08:37;4.47;;;2.70;;
11893;SDS011;6006;49.696;8.662;2023-03-05T14:11:11;3.50;;;2.40;;
11893;SDS011;6006;49.696;8.662;2023-03-05T14:13:41;3.73;;;2.33;;
11893;SDS011;6006;49.696;8.662;2023-03-05T14:16:09;4.90;;;2.67;;
11893;SDS011;6006;49.696;8.662;2023-03-05T14:18:37;2.70;;;2.30;;
11893;SDS011;6006;49.696;8.662;2023-03-05T14:21:17;3.53;;;2.07;;
11893;SDS011;6006;49.696;8.662;2023-03-05T14:23:44;4.10;;;2.60;;
11893;SDS011;6006;49.696;8.662;2023-03-05T14:26:20;3.97;;;2.23;;
11893;SDS011;6006;49.696;8.662;2023-03-05T14:28:53;3.07;;;2.20;;
11893;SDS011;6006;49.696;8.662;2023-03-05T14:31:22;4.00;;;2.40;;
11893;SDS011;6006;49.696;8.662;2023-03-05T14:33:51;4.20;;;2.60;;
11893;SDS011;6006;49.696;8.662;2023-03-05T14:36:22;5.17;;;3.37;;
11893;SDS011;6006;49.696;8.662;2023-03-05T14:38:53;6.53;;;3.73;;
11893;SDS011;6006;49.696;8.662;2023-03-05T14:41:26;4.03;;;2.40;;
11893;SDS011;6006;49.696;8.662;2023-03-05T14:44:00;5.27;;;2.63;;
11893;SDS011;6006;49.696;8.662;2023-03-05T14:46:27;4.27;;;3.27;;
11893;SDS011;6006;49.696;8.662;2023-03-05T14:48:54;4.57;;;2.43;;
11893;SDS011;6006;49.696;8.662;2023-03-05T14:51:21;4.50;;;2.47;;
11893;SDS011;6006;49.696;8.662;2023-03-05T14:53:50;6.00;;;3.03;;
11893;SDS011;6006;49.696;8.662;2023-03-05T14:56:18;4.20;;;3.27;;
11893;SDS011;6006;49.696;8.662;2023-03-05T14:58:49;13.20;;;8.17;;
11893;SDS011;6006;49.696;8.662;2023-03-05T15:01:17;5.97;;;2.67;;
11893;SDS011;6006;49.696;8.662;2023-03-05T15:03:46;3.67;;;2.70;;
11893;SDS011;6006;49.696;8.662;2023-03-05T15:06:16;6.03;;;2.90;;
11893;SDS011;6006;49.696;8.662;2023-03-05T15:08:45;4.23;;;2.90;;
11893;SDS011;6006;49.696;8.662;2023-03-05T15:11:12;4.90;;;2.63;;
11893;SDS011;6006;49.696;8.662;2023-03-05T15:13:39;6.07;;;3.40;;
11893;SDS011;6006;49.696;8.662;2023-03-05T15:16:06;4.27;;;2.93;;
11893;SDS011;6006;49.696;8.662;2023-03-05T15:18:37;5.27;;;3.30;;
11893;SDS011;6006;49.696;8.662;2023-03-05T15:21:04;8.73;;;5.40;;
11893;SDS011;6006;49.696;8.662;2023-03-05T15:23:31;4.43;;;2.77;;
11893;SDS011;6006;49.696;8.662;2023-03-05T15:26:01;4.77;;;2.87;;